Main page
Satellite images 15-day forecastsClimateMarine weather Cyclones Lightning AirportsFAQ Newsletter About
Weather : Europe Africa North America South America Asia Australia-Oceania Others
Languages Contact

London, England

City airport

latitude: 51-30N, longitude: 000-03E, elevation: 5 m


METAR: EGLC 231120Z 27010KT 240V300 9999 SCT048 17/05 Q1015
short-TAF: EGLC 230800Z 2309/2312 28009KT 9999 FEW045
long-TAF: missing

Time: 12:24 (11:24 UTC)

Current weather observation

The report was made 4 minutes ago, at 11:20 UTC  
Wind 10 kt from the West, varying between West/Southwest and West/Northwest
Temperature 17°C
Humidity 45%
Pressure 1015 hPa
Visibility 10 km or more
Scattered clouds at a height of 4800 ft

Change units

Forecast

The report was made 3 hours and 9 minutes ago, at 08:15 UTC  
Forecast valid from 23 at 09 UTC to 23 at 12 UTC
Wind 09 kt from the West
Visibility 10 km or more
Few clouds at a height of 4500 ft
The information on this site is subject to a disclaimer
Weather : Europe Africa North America South America Asia Australia-Oceania Others
Satellite images 15-day forecastsClimateMarine weather Cyclones Lightning AirportsFAQ Languages Contact Newsletter About